This is the latest recevied weather packets stored in our database for station/object KJ4OVR-WX. If no packets are shown the sender has not sent any weather packets the latest 10 day(s).
| Time | Temp. | Humidity | Pressure | Rain* | Wind** | Luminosity | Snow |
|---|---|---|---|---|---|---|---|
| 1777690818 | 14.44° C | 54% | 1015.6 hPa | 0 mm | - | - | - |
| 1777690517 | 14.44° C | 54% | 1015.6 hPa | 0 mm | - | - | - |
| 1777690217 | 14.44° C | 55% | 1015.6 hPa | 0 mm | - | - | - |
| 1777689918 | 14.44° C | 56% | 1015.4 hPa | 0 mm | - | - | - |
| 1777689617 | 14.44° C | 56% | 1015.4 hPa | 0 mm | - | - | - |
| 1777689320 | 14.44° C | 58% | 1015.3 hPa | 0 mm | - | - | - |
| 1777689017 | 14.44° C | 58% | 1015.3 hPa | 0 mm | - | - | - |
| 1777688717 | 14.44° C | 59% | 1015.1 hPa | 0 mm | - | - | - |
| 1777688417 | 14.44° C | 60% | 1015.1 hPa | 0 mm | - | - | - |
| 1777687817 | 15° C | 61% | 1014.9 hPa | 0 mm | - | - | - |
| 1777687517 | 15° C | 61% | 1014.8 hPa | 0 mm | - | - | - |
| 1777672519 | 20.56° C | 48% | 1011.8 hPa | 0 mm | - | - | - |
| 1777672220 | 20.56° C | 49% | 1011.8 hPa | 0 mm | - | - | - |
| 1777671920 | 20.56° C | 48% | 1011.7 hPa | 0 mm | - | - | - |
| 1777671017 | 21.11° C | 48% | 1011.7 hPa | 0.25 mm | - | - | - |
| 1777670417 | 21.11° C | 48% | 1012 hPa | 0 mm | - | - | - |
| 1777670122 | 21.11° C | 48% | 1012 hPa | 0 mm | - | - | - |
| 1777669517 | 21.67° C | 48% | 1012.3 hPa | 0 mm | - | - | - |
| 1777669217 | 21.67° C | 48% | 1012.3 hPa | 0 mm | - | - | - |
| 1777668924 | 21.67° C | 49% | 1012.4 hPa | 0 mm | - | - | - |
| 1777667721 | 20.56° C | 49% | 1013.1 hPa | 0 mm | - | - | - |
| 1777667124 | 20.56° C | 49% | 1013.2 hPa | 0 mm | - | - | - |
| 1777666821 | 20.56° C | 48% | 1013.3 hPa | 0 mm | - | - | - |
| 1777666221 | 20.56° C | 48% | 1013.4 hPa | 0 mm | - | - | - |
| 1777665318 | 20° C | 48% | 1013.9 hPa | 0 mm | - | - | - |
* Rain latest hour (hover to see other rain measurements)
** Current wind speed in m/s (hover to see current wind gust speed)